Página principal
METAR-TAF:

METAR-TAF

Aeroportos :

Aeroporto Internacional Nouakchott-Oumtounsy

Nouakchott, Mauritânia

latitude: 18-18-36N, longitude: 015-58-11W, altura: 3 m

Observação actual do tempo

O boletim foi feito há 16 minutos, às 07:00 UTC
Vento 10 kt de nor-noroeste
Temperatura 18°C
Humidade 77%
Pressão 1013 hPa
Visibilidade 10 km ou mais
sem nuvens abaixo de 1500 metros e sem cumulonimbus

METAR: GQNO 170700Z 34010KT CAVOK 18/14 Q1013 NOSIG

Hora: 07:16 (07:16 UTC)

Previsão

O boletim foi feito há 2 horas e 16 minutos, às 05:00 UTC
Previsão válida de 17 às 06 UTC a 18 às 12 UTC
Vento 12 kt de nor-nordeste
Visibilidade: 7000 m
Tornando-se
de 17 às 13 UTC a 17 às 15 UTC
Vento 14 kt de noroeste

TAF: GQNO 170500Z 1706/1812 02012KT 7000 NSC BECMG 1713/1715 32014KT

Observações e previsões do tempo de mais de 4000 aeroportos (mensagens METAR e TAF).

As estações disponíveis são os pontos amarelos e vermelhos sobre o mapa.

Mova o rato sobre o mapa para ver o nome da estação.

Depois clique no ponto para visualizar as observações e previsões meteorológicas.

Para alterar o mapa : clique nos botões verdes com uma cruz preta para aumentar o zoom; no botão verde com uma pitada de zoom; ou nas setas verdes para mapas adjacentes.


METAR-TAF: